createdAt,value
2024-05-09T00:00:06.000Z,0
2024-05-09T00:01:06.000Z,0
2024-05-09T00:02:07.000Z,0
2024-05-09T00:03:08.000Z,0
2024-05-09T00:04:08.000Z,0
2024-05-09T00:05:09.000Z,0
2024-05-09T00:06:10.000Z,0
2024-05-09T00:07:10.000Z,0
2024-05-09T00:08:11.000Z,0
2024-05-09T00:09:12.000Z,0
2024-05-09T00:10:12.000Z,0
2024-05-09T00:11:13.000Z,0
2024-05-09T00:12:13.000Z,0
2024-05-09T00:13:14.000Z,0
2024-05-09T00:14:15.000Z,0
2024-05-09T00:15:15.000Z,0
2024-05-09T00:16:16.000Z,1
2024-05-09T00:17:16.000Z,0
2024-05-09T00:18:17.000Z,0
2024-05-09T00:19:18.000Z,0
2024-05-09T00:20:18.000Z,0
2024-05-09T00:21:19.000Z,0
2024-05-09T00:22:20.000Z,0
2024-05-09T00:23:20.000Z,0
2024-05-09T00:24:21.000Z,0
2024-05-09T00:25:22.000Z,0
2024-05-09T00:26:22.000Z,0
2024-05-09T00:27:23.000Z,0
2024-05-09T00:28:23.000Z,0
2024-05-09T00:29:24.000Z,0
2024-05-09T00:30:25.000Z,0
2024-05-09T00:31:25.000Z,0
2024-05-09T00:32:26.000Z,0
2024-05-09T00:33:27.000Z,0
2024-05-09T00:34:27.000Z,0
2024-05-09T00:35:28.000Z,0
2024-05-09T00:36:28.000Z,0
2024-05-09T00:37:29.000Z,0
2024-05-09T00:38:30.000Z,0
2024-05-09T00:39:30.000Z,0
2024-05-09T00:40:31.000Z,0
2024-05-09T00:41:31.000Z,0
2024-05-09T00:42:32.000Z,0
2024-05-09T00:43:33.000Z,0
2024-05-09T00:44:33.000Z,0
2024-05-09T00:45:34.000Z,0
2024-05-09T00:46:35.000Z,0
2024-05-09T00:47:36.000Z,0
2024-05-09T00:48:36.000Z,0
2024-05-09T00:49:37.000Z,0
2024-05-09T00:50:37.000Z,0
2024-05-09T00:51:38.000Z,0
2024-05-09T00:52:39.000Z,0
2024-05-09T00:53:39.000Z,0
2024-05-09T00:54:40.000Z,0
2024-05-09T00:55:40.000Z,0
2024-05-09T00:56:41.000Z,0
2024-05-09T00:57:42.000Z,0
2024-05-09T00:58:42.000Z,0
2024-05-09T00:59:43.000Z,0
2024-05-09T01:00:44.000Z,0
2024-05-09T01:01:44.000Z,0
2024-05-09T01:02:45.000Z,0
2024-05-09T01:03:46.000Z,0
2024-05-09T01:04:46.000Z,0
2024-05-09T01:05:47.000Z,0
2024-05-09T01:06:47.000Z,0
2024-05-09T01:07:48.000Z,0
2024-05-09T01:08:49.000Z,0
2024-05-09T01:09:50.000Z,0
2024-05-09T01:10:50.000Z,0
2024-05-09T01:11:51.000Z,0
2024-05-09T01:12:52.000Z,0
2024-05-09T01:13:52.000Z,0
2024-05-09T01:14:53.000Z,0
2024-05-09T01:15:53.000Z,1
2024-05-09T01:16:54.000Z,1
2024-05-09T01:17:55.000Z,0
2024-05-09T01:18:55.000Z,0
2024-05-09T01:19:56.000Z,0
2024-05-09T01:20:57.000Z,0
2024-05-09T01:21:57.000Z,0
2024-05-09T01:22:58.000Z,0
2024-05-09T01:23:59.000Z,0
2024-05-09T01:24:59.000Z,0
2024-05-09T01:26:00.000Z,0
2024-05-09T01:27:00.000Z,0
2024-05-09T01:28:01.000Z,0
2024-05-09T01:29:02.000Z,0
2024-05-09T01:30:02.000Z,0
2024-05-09T01:31:03.000Z,0
2024-05-09T01:32:04.000Z,0
2024-05-09T01:33:04.000Z,0
2024-05-09T01:34:05.000Z,0
2024-05-09T01:35:05.000Z,0
2024-05-09T01:36:06.000Z,0
2024-05-09T01:37:07.000Z,0
2024-05-09T01:38:07.000Z,0
2024-05-09T01:39:08.000Z,0
2024-05-09T01:40:09.000Z,0
2024-05-09T01:41:09.000Z,0
2024-05-09T01:42:10.000Z,0
2024-05-09T01:43:11.000Z,0
2024-05-09T01:44:11.000Z,0
2024-05-09T01:45:12.000Z,1
2024-05-09T01:46:13.000Z,0
2024-05-09T01:47:13.000Z,0
2024-05-09T01:48:14.000Z,0
2024-05-09T01:49:15.000Z,0
2024-05-09T01:50:15.000Z,0
2024-05-09T01:51:16.000Z,0
2024-05-09T01:52:16.000Z,0
2024-05-09T01:53:17.000Z,0
2024-05-09T01:54:18.000Z,0
2024-05-09T01:55:18.000Z,0
2024-05-09T01:56:19.000Z,0
2024-05-09T01:57:20.000Z,0
2024-05-09T01:58:20.000Z,0
2024-05-09T01:59:21.000Z,0
2024-05-09T02:00:22.000Z,0
2024-05-09T02:01:22.000Z,0
2024-05-09T02:02:23.000Z,0
2024-05-09T02:03:24.000Z,0
2024-05-09T02:04:24.000Z,0
2024-05-09T02:05:25.000Z,0
2024-05-09T02:06:26.000Z,0
2024-05-09T02:07:26.000Z,1
2024-05-09T02:08:27.000Z,0
2024-05-09T02:09:27.000Z,1
2024-05-09T02:10:28.000Z,1
2024-05-09T02:11:29.000Z,1
2024-05-09T02:12:29.000Z,1
2024-05-09T02:13:30.000Z,1
2024-05-09T02:14:31.000Z,0
2024-05-09T02:15:31.000Z,0
2024-05-09T02:16:32.000Z,0
2024-05-09T02:17:32.000Z,0
2024-05-09T02:18:33.000Z,0
2024-05-09T02:19:34.000Z,0
2024-05-09T02:20:34.000Z,0
2024-05-09T02:21:35.000Z,0
2024-05-09T02:22:35.000Z,0
2024-05-09T02:23:36.000Z,0
2024-05-09T02:24:37.000Z,0
2024-05-09T02:25:37.000Z,0
2024-05-09T02:26:38.000Z,0
2024-05-09T02:27:39.000Z,0
2024-05-09T02:28:39.000Z,0
2024-05-09T02:29:40.000Z,0
2024-05-09T02:30:40.000Z,0
2024-05-09T02:31:41.000Z,0
2024-05-09T02:32:42.000Z,0
2024-05-09T02:33:42.000Z,0
2024-05-09T02:34:43.000Z,0
2024-05-09T02:35:44.000Z,0
2024-05-09T02:36:44.000Z,0
2024-05-09T02:37:45.000Z,1
2024-05-09T02:38:45.000Z,1
2024-05-09T02:39:46.000Z,1
2024-05-09T02:40:47.000Z,0
2024-05-09T02:41:47.000Z,0
2024-05-09T02:42:48.000Z,1
2024-05-09T02:43:49.000Z,1
2024-05-09T02:44:49.000Z,1
2024-05-09T02:45:50.000Z,1
2024-05-09T02:46:51.000Z,1
2024-05-09T02:47:51.000Z,1
2024-05-09T02:48:52.000Z,2
2024-05-09T02:49:53.000Z,2
2024-05-09T02:50:53.000Z,2
2024-05-09T02:51:54.000Z,3
2024-05-09T02:52:54.000Z,4
2024-05-09T02:53:55.000Z,3
2024-05-09T02:54:56.000Z,4
2024-05-09T02:55:56.000Z,5
2024-05-09T02:56:57.000Z,5
2024-05-09T02:57:57.000Z,7
2024-05-09T02:58:58.000Z,8
2024-05-09T02:59:59.000Z,8
2024-05-09T03:00:59.000Z,10
2024-05-09T03:02:00.000Z,11
2024-05-09T03:03:01.000Z,13
2024-05-09T03:04:01.000Z,15
2024-05-09T03:05:02.000Z,17
2024-05-09T03:06:03.000Z,21
2024-05-09T03:07:03.000Z,24
2024-05-09T03:08:04.000Z,27
2024-05-09T03:09:04.000Z,31
2024-05-09T03:10:05.000Z,35
2024-05-09T03:11:06.000Z,40
2024-05-09T03:12:06.000Z,46
2024-05-09T03:13:07.000Z,53
2024-05-09T03:14:07.000Z,61
2024-05-09T03:15:08.000Z,70
2024-05-09T03:16:09.000Z,80
2024-05-09T03:17:09.000Z,92
2024-05-09T03:18:10.000Z,104
2024-05-09T03:19:11.000Z,118
2024-05-09T03:20:11.000Z,133
2024-05-09T03:21:12.000Z,147
2024-05-09T03:22:13.000Z,163
2024-05-09T03:23:13.000Z,179
2024-05-09T03:24:14.000Z,195
2024-05-09T03:25:14.000Z,213
2024-05-09T03:26:15.000Z,232
2024-05-09T03:27:16.000Z,255
2024-05-09T03:28:16.000Z,276
2024-05-09T03:29:17.000Z,298
2024-05-09T03:30:18.000Z,322
2024-05-09T03:31:18.000Z,348
2024-05-09T03:32:19.000Z,374
2024-05-09T03:33:20.000Z,403
2024-05-09T03:34:20.000Z,435
2024-05-09T03:35:21.000Z,468
2024-05-09T03:36:22.000Z,501
2024-05-09T03:37:22.000Z,534
2024-05-09T03:38:23.000Z,567
2024-05-09T03:39:23.000Z,596
2024-05-09T03:40:24.000Z,631
2024-05-09T03:41:25.000Z,665
2024-05-09T03:42:25.000Z,706
2024-05-09T03:43:26.000Z,744
2024-05-09T03:44:27.000Z,780
2024-05-09T03:45:27.000Z,818
2024-05-09T03:46:28.000Z,862
2024-05-09T03:47:28.000Z,910
2024-05-09T03:48:29.000Z,958
2024-05-09T03:49:30.000Z,1007
2024-05-09T03:50:30.000Z,1055
2024-05-09T03:51:31.000Z,1108
2024-05-09T03:52:32.000Z,1166
2024-05-09T03:53:32.000Z,1221
2024-05-09T03:54:33.000Z,1281
2024-05-09T03:55:34.000Z,1348
2024-05-09T03:56:34.000Z,1407
2024-05-09T03:57:35.000Z,1467
2024-05-09T03:58:36.000Z,1534
2024-05-09T03:59:36.000Z,1606
2024-05-09T04:00:37.000Z,1677
2024-05-09T04:01:37.000Z,1740
2024-05-09T04:02:38.000Z,1806
2024-05-09T04:03:39.000Z,1879
2024-05-09T04:04:39.000Z,1938
2024-05-09T04:05:40.000Z,2016
2024-05-09T04:06:41.000Z,2095
2024-05-09T04:07:41.000Z,2174
2024-05-09T04:08:42.000Z,2255
2024-05-09T04:09:42.000Z,2352
2024-05-09T04:10:43.000Z,2443
2024-05-09T04:11:44.000Z,2540
2024-05-09T04:12:44.000Z,2636
2024-05-09T04:13:45.000Z,2741
2024-05-09T04:14:46.000Z,2853
2024-05-09T04:15:46.000Z,2975
2024-05-09T04:16:47.000Z,3067
2024-05-09T04:17:48.000Z,3183
2024-05-09T04:18:48.000Z,3290
2024-05-09T04:19:49.000Z,3374
2024-05-09T04:20:50.000Z,3498
2024-05-09T04:21:50.000Z,3591
2024-05-09T04:22:51.000Z,3683
2024-05-09T04:23:51.000Z,3775
2024-05-09T04:24:52.000Z,3843
2024-05-09T04:25:53.000Z,3830
2024-05-09T04:26:53.000Z,3817
2024-05-09T04:27:54.000Z,3837
2024-05-09T04:28:55.000Z,3898
2024-05-09T04:29:55.000Z,4010
2024-05-09T04:30:56.000Z,4051
2024-05-09T04:31:57.000Z,4059
2024-05-09T04:32:57.000Z,4050
2024-05-09T04:33:58.000Z,4165
2024-05-09T04:34:59.000Z,4266
2024-05-09T04:35:59.000Z,4394
2024-05-09T04:37:00.000Z,4485
2024-05-09T04:38:00.000Z,4607
2024-05-09T04:39:01.000Z,4695
2024-05-09T04:40:02.000Z,4733
2024-05-09T04:41:02.000Z,4785
2024-05-09T04:42:03.000Z,4804
2024-05-09T04:43:04.000Z,4873
2024-05-09T04:44:04.000Z,4831
2024-05-09T04:45:05.000Z,4720
2024-05-09T04:46:06.000Z,4606
2024-05-09T04:47:06.000Z,4580
2024-05-09T04:48:07.000Z,4596
2024-05-09T04:49:08.000Z,4671
2024-05-09T04:50:08.000Z,4690
2024-05-09T04:51:09.000Z,4713
2024-05-09T04:52:09.000Z,4681
2024-05-09T04:53:10.000Z,4659
2024-05-09T04:54:11.000Z,4616
2024-05-09T04:55:11.000Z,4585
2024-05-09T04:56:12.000Z,4583
2024-05-09T04:57:13.000Z,4592
2024-05-09T04:58:13.000Z,4612
2024-05-09T04:59:14.000Z,4635
2024-05-09T05:00:15.000Z,4678
2024-05-09T05:01:15.000Z,4718
2024-05-09T05:02:16.000Z,4737
2024-05-09T05:03:17.000Z,4725
2024-05-09T05:04:17.000Z,4691
2024-05-09T05:05:18.000Z,4662
2024-05-09T05:06:18.000Z,4645
2024-05-09T05:07:19.000Z,4651
2024-05-09T05:08:20.000Z,4728
2024-05-09T05:09:20.000Z,4863
2024-05-09T05:10:21.000Z,4906
2024-05-09T05:11:21.000Z,5132
2024-05-09T05:12:22.000Z,5128
2024-05-09T05:13:23.000Z,5138
2024-05-09T05:14:23.000Z,5240
2024-05-09T05:15:24.000Z,5340
2024-05-09T05:16:25.000Z,5360
2024-05-09T05:17:25.000Z,5477
2024-05-09T05:18:26.000Z,5654
2024-05-09T05:19:26.000Z,5965
2024-05-09T05:20:27.000Z,6365
2024-05-09T05:21:28.000Z,6746
2024-05-09T05:22:28.000Z,7077
2024-05-09T05:23:29.000Z,7467
2024-05-09T05:24:30.000Z,7834
2024-05-09T05:25:30.000Z,8209
2024-05-09T05:26:31.000Z,8495
2024-05-09T05:27:31.000Z,8745
2024-05-09T05:28:32.000Z,8806
2024-05-09T05:29:33.000Z,8858
2024-05-09T05:30:33.000Z,8719
2024-05-09T05:31:34.000Z,8561
2024-05-09T05:32:34.000Z,8361
2024-05-09T05:33:35.000Z,8208
2024-05-09T05:34:36.000Z,8148
2024-05-09T05:35:36.000Z,8198
2024-05-09T05:36:37.000Z,8321
2024-05-09T05:37:38.000Z,8398
2024-05-09T05:38:38.000Z,8364
2024-05-09T05:39:39.000Z,8256
2024-05-09T05:40:39.000Z,8027
2024-05-09T05:41:40.000Z,7686
2024-05-09T05:42:41.000Z,7312
2024-05-09T05:43:41.000Z,7070
2024-05-09T05:44:42.000Z,6976
2024-05-09T05:45:42.000Z,7026
2024-05-09T05:46:43.000Z,7210
2024-05-09T05:47:44.000Z,7471
2024-05-09T05:48:44.000Z,7784
2024-05-09T05:49:45.000Z,7993
2024-05-09T05:50:46.000Z,7928
2024-05-09T05:51:46.000Z,7772
2024-05-09T05:52:47.000Z,7544
2024-05-09T05:53:48.000Z,7430
2024-05-09T05:54:48.000Z,7157
2024-05-09T05:55:49.000Z,6985
2024-05-09T05:56:49.000Z,6831
2024-05-09T05:57:50.000Z,6759
2024-05-09T05:58:51.000Z,6616
2024-05-09T05:59:51.000Z,6600
2024-05-09T06:00:52.000Z,6385
2024-05-09T06:01:52.000Z,6400
2024-05-09T06:02:53.000Z,6407
2024-05-09T06:03:54.000Z,6594
2024-05-09T06:04:54.000Z,6731
2024-05-09T06:05:55.000Z,6913
2024-05-09T06:06:56.000Z,7086
2024-05-09T06:07:56.000Z,7226
2024-05-09T06:08:57.000Z,7315
2024-05-09T06:09:57.000Z,7344
2024-05-09T06:10:58.000Z,7321
2024-05-09T06:11:59.000Z,7325
2024-05-09T06:12:59.000Z,7380
2024-05-09T06:14:00.000Z,7474
2024-05-09T06:15:01.000Z,7627
2024-05-09T06:16:01.000Z,7801
2024-05-09T06:17:02.000Z,8067
2024-05-09T06:18:02.000Z,8377
2024-05-09T06:19:03.000Z,8571
2024-05-09T06:20:04.000Z,8774
2024-05-09T06:21:04.000Z,8935
2024-05-09T06:22:05.000Z,9162
2024-05-09T06:23:06.000Z,9423
2024-05-09T06:24:06.000Z,9669
2024-05-09T06:25:07.000Z,9901
2024-05-09T06:26:07.000Z,10024
2024-05-09T06:27:08.000Z,10150
2024-05-09T06:28:09.000Z,10201
2024-05-09T06:29:09.000Z,10383
2024-05-09T06:30:10.000Z,10726
2024-05-09T06:31:11.000Z,11269
2024-05-09T06:32:11.000Z,11697
2024-05-09T06:33:12.000Z,11756
2024-05-09T06:34:12.000Z,11579
2024-05-09T06:35:13.000Z,11105
2024-05-09T06:36:14.000Z,10787
2024-05-09T06:37:14.000Z,10350
2024-05-09T06:38:15.000Z,9971
2024-05-09T06:39:15.000Z,9682
2024-05-09T06:40:16.000Z,10230
2024-05-09T06:41:17.000Z,9083
2024-05-09T06:42:17.000Z,9507
2024-05-09T06:43:18.000Z,9597
2024-05-09T06:44:19.000Z,9294
2024-05-09T06:45:19.000Z,8848
2024-05-09T06:46:20.000Z,9000
2024-05-09T06:47:21.000Z,9001
2024-05-09T06:48:21.000Z,9280
2024-05-09T06:49:22.000Z,9053
2024-05-09T06:50:22.000Z,9065
2024-05-09T06:51:23.000Z,8908
2024-05-09T06:52:24.000Z,8836
2024-05-09T06:53:24.000Z,9190
2024-05-09T06:54:25.000Z,9318
2024-05-09T06:55:26.000Z,9496
2024-05-09T06:56:26.000Z,9727
2024-05-09T06:57:27.000Z,9812
2024-05-09T06:58:28.000Z,10643
2024-05-09T06:59:28.000Z,8977
2024-05-09T07:00:29.000Z,8736
2024-05-09T07:01:29.000Z,8342
2024-05-09T07:02:30.000Z,8246
2024-05-09T07:03:31.000Z,8368
2024-05-09T07:04:31.000Z,8404
2024-05-09T07:05:32.000Z,8385
2024-05-09T07:06:33.000Z,8268
2024-05-09T07:07:33.000Z,8205
2024-05-09T07:08:34.000Z,7965
2024-05-09T07:09:35.000Z,7818
2024-05-09T07:10:35.000Z,7904
2024-05-09T07:11:36.000Z,7813
2024-05-09T07:12:36.000Z,7907
2024-05-09T07:13:37.000Z,7981
2024-05-09T07:14:38.000Z,7890
2024-05-09T07:15:38.000Z,7975
2024-05-09T07:16:39.000Z,8019
2024-05-09T07:17:40.000Z,8006
2024-05-09T07:18:40.000Z,8012
2024-05-09T07:19:41.000Z,7995
2024-05-09T07:20:42.000Z,7984
2024-05-09T07:21:42.000Z,8001
2024-05-09T07:22:43.000Z,7960
2024-05-09T07:23:44.000Z,7944
2024-05-09T07:24:44.000Z,7984
2024-05-09T07:25:45.000Z,7995
2024-05-09T07:26:45.000Z,7972
2024-05-09T07:27:46.000Z,7970
2024-05-09T07:28:47.000Z,7929
2024-05-09T07:29:47.000Z,8009
2024-05-09T07:30:48.000Z,7988
2024-05-09T07:31:49.000Z,7965
2024-05-09T07:32:49.000Z,7917
2024-05-09T07:33:50.000Z,7926
2024-05-09T07:34:51.000Z,7956
2024-05-09T07:35:51.000Z,7973
2024-05-09T07:36:52.000Z,8030
2024-05-09T07:37:52.000Z,8081
2024-05-09T07:38:53.000Z,8140
2024-05-09T07:39:54.000Z,8182
2024-05-09T07:40:54.000Z,8220
2024-05-09T07:41:55.000Z,8267
2024-05-09T07:41:55.000Z,8267
2024-05-09T07:42:56.000Z,8409
2024-05-09T07:42:56.000Z,8409
2024-05-09T07:43:56.000Z,8479
2024-05-09T07:43:56.000Z,8479
2024-05-09T07:44:57.000Z,9458
2024-05-09T07:44:57.000Z,9458
2024-05-09T07:45:58.000Z,8399
2024-05-09T07:45:58.000Z,8399
2024-05-09T07:46:58.000Z,8398
2024-05-09T07:46:58.000Z,8398
2024-05-09T07:47:59.000Z,8427
2024-05-09T07:47:59.000Z,8427
2024-05-09T07:49:00.000Z,8462
2024-05-09T07:49:00.000Z,8462
2024-05-09T07:50:00.000Z,8501
2024-05-09T07:50:00.000Z,8501
2024-05-09T07:51:01.000Z,8528
2024-05-09T07:52:02.000Z,8531
2024-05-09T07:53:02.000Z,8520
2024-05-09T07:54:03.000Z,8523
2024-05-09T07:55:04.000Z,8534
2024-05-09T07:56:04.000Z,8546
2024-05-09T07:57:05.000Z,8555
2024-05-09T07:58:05.000Z,8574
2024-05-09T07:59:06.000Z,8610
2024-05-09T08:00:07.000Z,8711
2024-05-09T08:01:07.000Z,8793
2024-05-09T08:02:08.000Z,8976
2024-05-09T08:03:09.000Z,9409
2024-05-09T08:04:09.000Z,9456
2024-05-09T08:05:10.000Z,8953
2024-05-09T08:06:11.000Z,9044
2024-05-09T08:07:11.000Z,9301
2024-05-09T08:08:12.000Z,10594
2024-05-09T08:09:13.000Z,10694
2024-05-09T08:10:13.000Z,9525
2024-05-09T08:11:14.000Z,9135
2024-05-09T08:12:14.000Z,9241
2024-05-09T08:13:15.000Z,9948
2024-05-09T08:14:16.000Z,9707
2024-05-09T08:15:16.000Z,9646
2024-05-09T08:16:17.000Z,12759
2024-05-09T08:17:18.000Z,33096
2024-05-09T08:18:18.000Z,43224
2024-05-09T08:19:19.000Z,47744
2024-05-09T08:20:20.000Z,46984
2024-05-09T08:21:20.000Z,50104
2024-05-09T08:22:21.000Z,52056
2024-05-09T08:23:21.000Z,53856
2024-05-09T08:24:22.000Z,54640
2024-05-09T08:25:23.000Z,54936
2024-05-09T08:26:23.000Z,49120
2024-05-09T08:27:24.000Z,47416
2024-05-09T08:28:25.000Z,54728
2024-05-09T08:29:25.000Z,55504
2024-05-09T08:30:26.000Z,49960
2024-05-09T08:31:26.000Z,39312
2024-05-09T08:32:27.000Z,41480
2024-05-09T08:33:28.000Z,58128
2024-05-09T08:34:28.000Z,59584
2024-05-09T08:35:29.000Z,61224
2024-05-09T08:36:30.000Z,62576
2024-05-09T08:37:30.000Z,62984
2024-05-09T08:38:31.000Z,65535
2024-05-09T08:39:31.000Z,65535
2024-05-09T08:40:32.000Z,65535
2024-05-09T08:41:33.000Z,65535
2024-05-09T08:42:33.000Z,50904
2024-05-09T08:43:34.000Z,60808
2024-05-09T08:44:35.000Z,64736
2024-05-09T08:45:35.000Z,63696
2024-05-09T08:46:36.000Z,61408
2024-05-09T08:47:36.000Z,60776
2024-05-09T08:48:37.000Z,63112
2024-05-09T08:49:38.000Z,65416
2024-05-09T08:50:38.000Z,65535
2024-05-09T08:51:39.000Z,65535
2024-05-09T08:52:40.000Z,65535
2024-05-09T08:53:40.000Z,65535
2024-05-09T08:54:41.000Z,65535
2024-05-09T08:55:41.000Z,65216
2024-05-09T08:56:42.000Z,65104
2024-05-09T08:57:43.000Z,65168
2024-05-09T08:58:43.000Z,65535
2024-05-09T08:59:44.000Z,65535
2024-05-09T09:00:45.000Z,65535
2024-05-09T09:01:45.000Z,65535
2024-05-09T09:02:46.000Z,65535
2024-05-09T09:03:46.000Z,65535
2024-05-09T09:04:47.000Z,65535
2024-05-09T09:05:48.000Z,65535
2024-05-09T09:06:48.000Z,65535
2024-05-09T09:07:49.000Z,65535
2024-05-09T09:08:50.000Z,65535
2024-05-09T09:09:50.000Z,65535
2024-05-09T09:10:51.000Z,65535
2024-05-09T09:11:51.000Z,54232
2024-05-09T09:12:52.000Z,65535
2024-05-09T09:13:53.000Z,65535
2024-05-09T09:14:53.000Z,65535
2024-05-09T09:15:54.000Z,65535
2024-05-09T09:16:55.000Z,65535
2024-05-09T09:17:55.000Z,65535
2024-05-09T09:18:56.000Z,65535
2024-05-09T09:19:56.000Z,65535
2024-05-09T09:20:57.000Z,65535
2024-05-09T09:21:58.000Z,65535
2024-05-09T09:22:58.000Z,65535
2024-05-09T09:23:59.000Z,65535
2024-05-09T09:24:59.000Z,65535
2024-05-09T09:26:00.000Z,65535
2024-05-09T09:27:01.000Z,65535
2024-05-09T09:28:01.000Z,14148
2024-05-09T09:29:02.000Z,13518
2024-05-09T09:30:03.000Z,14381
2024-05-09T09:31:03.000Z,16492
2024-05-09T09:32:04.000Z,35376
2024-05-09T09:33:05.000Z,65535
2024-05-09T09:34:05.000Z,21632
2024-05-09T09:35:06.000Z,24592
2024-05-09T09:36:06.000Z,30288
2024-05-09T09:37:07.000Z,20008
2024-05-09T09:38:08.000Z,13561
2024-05-09T09:39:08.000Z,12664
2024-05-09T09:40:09.000Z,12588
2024-05-09T09:41:10.000Z,13028
2024-05-09T09:42:10.000Z,14916
2024-05-09T09:43:11.000Z,59776
2024-05-09T09:44:12.000Z,65535
2024-05-09T09:45:12.000Z,65535
2024-05-09T09:46:13.000Z,65535
2024-05-09T09:47:14.000Z,65535
2024-05-09T09:48:14.000Z,65535
2024-05-09T09:49:15.000Z,65535
2024-05-09T09:50:15.000Z,65535
2024-05-09T09:51:16.000Z,65535
2024-05-09T09:52:17.000Z,65535
2024-05-09T09:53:17.000Z,65535
2024-05-09T09:54:18.000Z,65535
2024-05-09T09:55:19.000Z,65535
2024-05-09T09:56:19.000Z,65535
2024-05-09T09:57:20.000Z,65535
2024-05-09T09:58:20.000Z,65535
2024-05-09T09:59:21.000Z,65535
2024-05-09T10:00:22.000Z,65535
2024-05-09T10:01:22.000Z,65535
2024-05-09T10:02:23.000Z,62560
2024-05-09T10:03:24.000Z,22432
2024-05-09T10:04:24.000Z,65535
2024-05-09T10:05:25.000Z,64920
2024-05-09T10:06:26.000Z,65535
2024-05-09T10:07:26.000Z,65535
2024-05-09T10:08:27.000Z,65535
2024-05-09T10:09:28.000Z,65535
2024-05-09T10:10:28.000Z,65535
2024-05-09T10:11:29.000Z,65535
2024-05-09T10:12:29.000Z,19032
2024-05-09T10:13:30.000Z,16802
2024-05-09T10:14:31.000Z,35288
2024-05-09T10:15:31.000Z,65535
2024-05-09T10:16:32.000Z,65535
2024-05-09T10:17:33.000Z,65535
2024-05-09T10:18:33.000Z,65535
2024-05-09T10:19:34.000Z,65535
2024-05-09T10:20:34.000Z,65535
2024-05-09T10:21:35.000Z,65535
2024-05-09T10:22:36.000Z,65535
2024-05-09T10:23:36.000Z,65535
2024-05-09T10:24:37.000Z,65535
2024-05-09T10:25:38.000Z,65535
2024-05-09T10:26:38.000Z,65535
2024-05-09T10:27:39.000Z,65535
2024-05-09T10:28:40.000Z,65535
2024-05-09T10:29:40.000Z,65535
2024-05-09T10:30:41.000Z,65535
2024-05-09T10:31:42.000Z,65535
2024-05-09T10:32:42.000Z,65535
2024-05-09T10:33:43.000Z,65535
2024-05-09T10:34:43.000Z,65535
2024-05-09T10:35:44.000Z,65535
2024-05-09T10:36:45.000Z,65535
2024-05-09T10:37:45.000Z,65535
2024-05-09T10:38:46.000Z,65535
2024-05-09T10:39:47.000Z,65535
2024-05-09T10:40:47.000Z,65535
2024-05-09T10:41:48.000Z,65535
2024-05-09T10:42:49.000Z,65535
2024-05-09T10:43:49.000Z,65535
2024-05-09T10:44:50.000Z,65535
2024-05-09T10:45:50.000Z,65535
2024-05-09T10:46:51.000Z,65535
2024-05-09T10:47:52.000Z,65535
2024-05-09T10:48:52.000Z,65535
2024-05-09T10:49:53.000Z,65535
2024-05-09T10:50:54.000Z,65535
2024-05-09T10:51:54.000Z,65535
2024-05-09T10:52:55.000Z,65535
2024-05-09T10:53:56.000Z,65535
2024-05-09T10:54:56.000Z,65535
2024-05-09T10:55:57.000Z,65535
2024-05-09T10:56:58.000Z,65535
2024-05-09T10:57:58.000Z,65535
2024-05-09T10:58:59.000Z,65535
2024-05-09T10:59:59.000Z,65535
2024-05-09T11:01:00.000Z,65535
2024-05-09T11:02:01.000Z,65535
2024-05-09T11:03:01.000Z,65535
2024-05-09T11:04:02.000Z,65535
2024-05-09T11:05:03.000Z,29312
2024-05-09T11:06:03.000Z,32672
2024-05-09T11:07:04.000Z,43488
2024-05-09T11:08:05.000Z,62864
2024-05-09T11:09:05.000Z,65535
2024-05-09T11:10:06.000Z,65535
2024-05-09T11:11:06.000Z,65535
2024-05-09T11:12:07.000Z,65535
2024-05-09T11:13:08.000Z,65535
2024-05-09T11:14:08.000Z,65535
2024-05-09T11:15:09.000Z,65535
2024-05-09T11:16:10.000Z,65535
2024-05-09T11:17:10.000Z,65535
2024-05-09T11:18:11.000Z,65535
2024-05-09T11:19:11.000Z,65535
2024-05-09T11:20:12.000Z,65535
2024-05-09T11:21:13.000Z,65535
2024-05-09T11:22:13.000Z,65535
2024-05-09T11:23:14.000Z,65535
2024-05-09T11:24:15.000Z,65535
2024-05-09T11:25:15.000Z,65535
2024-05-09T11:26:16.000Z,65535
2024-05-09T11:27:16.000Z,65535
2024-05-09T11:28:17.000Z,65535
2024-05-09T11:29:18.000Z,65535
2024-05-09T11:30:18.000Z,65535
2024-05-09T11:31:19.000Z,65535
2024-05-09T11:32:20.000Z,65535
2024-05-09T11:33:20.000Z,65535
2024-05-09T11:34:21.000Z,65535
2024-05-09T11:35:22.000Z,65535
2024-05-09T11:36:22.000Z,65535
2024-05-09T11:37:23.000Z,65535
2024-05-09T11:38:23.000Z,65535
2024-05-09T11:39:24.000Z,65535
2024-05-09T11:40:25.000Z,65535
2024-05-09T11:41:25.000Z,65535
2024-05-09T11:42:26.000Z,65535
2024-05-09T11:43:27.000Z,65535
2024-05-09T11:44:27.000Z,65535
2024-05-09T11:45:28.000Z,65535
2024-05-09T11:46:28.000Z,65535
2024-05-09T11:47:29.000Z,65535
2024-05-09T11:48:30.000Z,65535
2024-05-09T11:49:30.000Z,65535
2024-05-09T11:50:31.000Z,65535
2024-05-09T11:51:32.000Z,65535
2024-05-09T11:52:32.000Z,65535
2024-05-09T11:53:33.000Z,65535
2024-05-09T11:54:33.000Z,65535
2024-05-09T11:55:34.000Z,65535
2024-05-09T11:56:35.000Z,65535
2024-05-09T11:57:35.000Z,65535
2024-05-09T11:58:36.000Z,42984
2024-05-09T11:59:37.000Z,49072
2024-05-09T12:00:37.000Z,65535
2024-05-09T12:01:38.000Z,65535
2024-05-09T12:02:39.000Z,65535
2024-05-09T12:03:39.000Z,65535
2024-05-09T12:04:40.000Z,65535
2024-05-09T12:05:40.000Z,65535
2024-05-09T12:06:41.000Z,65535
2024-05-09T12:07:42.000Z,65535
2024-05-09T12:08:42.000Z,65535
2024-05-09T12:09:43.000Z,65535
2024-05-09T12:10:44.000Z,65535
2024-05-09T12:11:44.000Z,65535
2024-05-09T12:12:45.000Z,65535
2024-05-09T12:13:46.000Z,65535
2024-05-09T12:14:46.000Z,65535
2024-05-09T12:15:47.000Z,65535
2024-05-09T12:16:47.000Z,65535
2024-05-09T12:17:48.000Z,65535
2024-05-09T12:18:49.000Z,65535
2024-05-09T12:19:49.000Z,65535
2024-05-09T12:20:50.000Z,65535
2024-05-09T12:21:51.000Z,65535
2024-05-09T12:22:51.000Z,65535
2024-05-09T12:23:52.000Z,65535
2024-05-09T12:24:52.000Z,65535
2024-05-09T12:25:53.000Z,65535
2024-05-09T12:26:54.000Z,65535
2024-05-09T12:27:54.000Z,65535
2024-05-09T12:28:55.000Z,65535
2024-05-09T12:29:56.000Z,65535
2024-05-09T12:30:56.000Z,65535
2024-05-09T12:31:57.000Z,65535
2024-05-09T12:32:58.000Z,65535
2024-05-09T12:33:58.000Z,65535
2024-05-09T12:34:59.000Z,65535
2024-05-09T12:36:00.000Z,65535
2024-05-09T12:37:00.000Z,65535
2024-05-09T12:38:01.000Z,65535
2024-05-09T12:39:01.000Z,65535
2024-05-09T12:40:02.000Z,65535
2024-05-09T12:41:03.000Z,65535
2024-05-09T12:42:03.000Z,65535
2024-05-09T12:43:04.000Z,65535
2024-05-09T12:44:05.000Z,65535
2024-05-09T12:45:05.000Z,65535
2024-05-09T12:46:06.000Z,65535
2024-05-09T12:47:06.000Z,65535
2024-05-09T12:48:07.000Z,65535
2024-05-09T12:49:08.000Z,65535
2024-05-09T12:50:08.000Z,65535
2024-05-09T12:51:09.000Z,65535
2024-05-09T12:52:10.000Z,65535
2024-05-09T12:53:10.000Z,65535
2024-05-09T12:54:11.000Z,65535
2024-05-09T12:55:12.000Z,38280
2024-05-09T12:56:12.000Z,65535
2024-05-09T12:57:13.000Z,32888
2024-05-09T12:58:13.000Z,37872
2024-05-09T12:59:14.000Z,65535
2024-05-09T13:00:15.000Z,65535
2024-05-09T13:01:16.000Z,65535
2024-05-09T13:02:16.000Z,43288
2024-05-09T13:03:17.000Z,65535
2024-05-09T13:04:18.000Z,65535
2024-05-09T13:05:18.000Z,65535
2024-05-09T13:06:19.000Z,65535
2024-05-09T13:07:19.000Z,65535
2024-05-09T13:08:20.000Z,65535
2024-05-09T13:09:21.000Z,65535
2024-05-09T13:10:21.000Z,65535
2024-05-09T13:11:22.000Z,65535
2024-05-09T13:12:23.000Z,65535
2024-05-09T13:13:23.000Z,65535
2024-05-09T13:14:24.000Z,65535
2024-05-09T13:15:25.000Z,65535
2024-05-09T13:16:25.000Z,65535
2024-05-09T13:17:26.000Z,65535
2024-05-09T13:18:26.000Z,65535
2024-05-09T13:19:27.000Z,45656
2024-05-09T13:20:28.000Z,65535
2024-05-09T13:21:28.000Z,65535
2024-05-09T13:22:29.000Z,65535
2024-05-09T13:23:29.000Z,65535
2024-05-09T13:24:30.000Z,65535
2024-05-09T13:25:31.000Z,65535
2024-05-09T13:26:31.000Z,65535